sensor_id;sensor_type;location;lat;lon;timestamp;pressure;altitude;pressure_sealevel;temperature;humidity
27429;BME280;14881;48.092;11.574;2024-01-25T00:01:37;96423.56;;;7.72;100.00
27429;BME280;14881;48.092;11.574;2024-01-25T00:04:05;96424.38;;;7.73;100.00
27429;BME280;14881;48.092;11.574;2024-01-25T00:06:31;96436.84;;;7.74;100.00
27429;BME280;14881;48.092;11.574;2024-01-25T00:08:58;96431.09;;;7.70;100.00
27429;BME280;14881;48.092;11.574;2024-01-25T00:11:24;96434.06;;;7.68;100.00
27429;BME280;14881;48.092;11.574;2024-01-25T00:13:51;96422.31;;;7.63;100.00
27429;BME280;14881;48.092;11.574;2024-01-25T00:16:17;96430.44;;;7.63;100.00
27429;BME280;14881;48.092;11.574;2024-01-25T00:18:45;96427.19;;;7.61;100.00
27429;BME280;14881;48.092;11.574;2024-01-25T00:21:11;96437.44;;;7.59;100.00
27429;BME280;14881;48.092;11.574;2024-01-25T00:23:37;96429.22;;;7.71;100.00
27429;BME280;14881;48.092;11.574;2024-01-25T00:26:04;96424.88;;;7.69;100.00
27429;BME280;14881;48.092;11.574;2024-01-25T00:28:30;96439.06;;;7.77;100.00
27429;BME280;14881;48.092;11.574;2024-01-25T00:30:59;96432.81;;;7.76;100.00
27429;BME280;14881;48.092;11.574;2024-01-25T00:33:25;96445.28;;;7.77;100.00
27429;BME280;14881;48.092;11.574;2024-01-25T00:35:53;96455.28;;;7.77;100.00
27429;BME280;14881;48.092;11.574;2024-01-25T00:38:20;96451.25;;;7.79;100.00
27429;BME280;14881;48.092;11.574;2024-01-25T00:40:47;96442.72;;;7.87;100.00
27429;BME280;14881;48.092;11.574;2024-01-25T00:43:14;96444.84;;;7.85;100.00
27429;BME280;14881;48.092;11.574;2024-01-25T00:45:41;96435.50;;;7.93;100.00
27429;BME280;14881;48.092;11.574;2024-01-25T00:48:09;96431.72;;;7.94;100.00
27429;BME280;14881;48.092;11.574;2024-01-25T00:50:36;96425.97;;;7.90;100.00
27429;BME280;14881;48.092;11.574;2024-01-25T00:53:04;96440.09;;;7.92;100.00
27429;BME280;14881;48.092;11.574;2024-01-25T00:55:31;96438.69;;;7.90;100.00
27429;BME280;14881;48.092;11.574;2024-01-25T00:57:58;96437.38;;;7.92;100.00
27429;BME280;14881;48.092;11.574;2024-01-25T01:00:26;96435.16;;;7.89;100.00
27429;BME280;14881;48.092;11.574;2024-01-25T01:02:53;96442.53;;;7.94;100.00
27429;BME280;14881;48.092;11.574;2024-01-25T01:05:21;96449.25;;;7.91;100.00
27429;BME280;14881;48.092;11.574;2024-01-25T01:07:48;96438.25;;;7.98;100.00
27429;BME280;14881;48.092;11.574;2024-01-25T01:10:17;96456.38;;;7.97;100.00
27429;BME280;14881;48.092;11.574;2024-01-25T01:12:44;96459.06;;;7.97;100.00
27429;BME280;14881;48.092;11.574;2024-01-25T01:15:10;96457.75;;;8.00;100.00
27429;BME280;14881;48.092;11.574;2024-01-25T01:17:37;96466.13;;;7.98;100.00
27429;BME280;14881;48.092;11.574;2024-01-25T01:20:04;96467.19;;;7.97;100.00
27429;BME280;14881;48.092;11.574;2024-01-25T01:22:31;96475.72;;;8.06;100.00
27429;BME280;14881;48.092;11.574;2024-01-25T01:24:57;96479.50;;;8.05;100.00
27429;BME280;14881;48.092;11.574;2024-01-25T01:27:24;96475.22;;;8.09;100.00
27429;BME280;14881;48.092;11.574;2024-01-25T01:29:51;96482.53;;;8.09;100.00
27429;BME280;14881;48.092;11.574;2024-01-25T01:32:17;96484.16;;;8.10;100.00
27429;BME280;14881;48.092;11.574;2024-01-25T01:34:44;96476.03;;;8.10;100.00
27429;BME280;14881;48.092;11.574;2024-01-25T01:37:11;96476.22;;;8.03;100.00
27429;BME280;14881;48.092;11.574;2024-01-25T01:39:37;96468.41;;;8.07;100.00
27429;BME280;14881;48.092;11.574;2024-01-25T01:42:04;96465.63;;;8.01;100.00
27429;BME280;14881;48.092;11.574;2024-01-25T01:44:31;96463.50;;;8.03;100.00
27429;BME280;14881;48.092;11.574;2024-01-25T01:46:58;96452.84;;;7.97;100.00
27429;BME280;14881;48.092;11.574;2024-01-25T01:49:25;96445.25;;;7.94;100.00
27429;BME280;14881;48.092;11.574;2024-01-25T01:51:52;96458.19;;;7.92;100.00
27429;BME280;14881;48.092;11.574;2024-01-25T01:54:19;96450.81;;;7.87;100.00
27429;BME280;14881;48.092;11.574;2024-01-25T01:56:46;96463.28;;;7.88;100.00
27429;BME280;14881;48.092;11.574;2024-01-25T01:59:12;96463.78;;;7.85;100.00
27429;BME280;14881;48.092;11.574;2024-01-25T02:01:40;96454.59;;;7.86;100.00
27429;BME280;14881;48.092;11.574;2024-01-25T02:04:06;96456.00;;;7.89;100.00
27429;BME280;14881;48.092;11.574;2024-01-25T02:06:33;96454.09;;;7.89;100.00
27429;BME280;14881;48.092;11.574;2024-01-25T02:09:00;96456.56;;;7.91;100.00
27429;BME280;14881;48.092;11.574;2024-01-25T02:11:28;96445.41;;;7.87;100.00
27429;BME280;14881;48.092;11.574;2024-01-25T02:13:56;96447.63;;;7.90;100.00
27429;BME280;14881;48.092;11.574;2024-01-25T02:16:22;96449.44;;;7.85;100.00
27429;BME280;14881;48.092;11.574;2024-01-25T02:18:49;96443.78;;;7.86;100.00
27429;BME280;14881;48.092;11.574;2024-01-25T02:21:16;96444.03;;;7.85;100.00
27429;BME280;14881;48.092;11.574;2024-01-25T02:23:44;96455.03;;;7.78;100.00
27429;BME280;14881;48.092;11.574;2024-01-25T02:26:10;96440.44;;;7.79;100.00
27429;BME280;14881;48.092;11.574;2024-01-25T02:28:37;96452.75;;;7.70;100.00
27429;BME280;14881;48.092;11.574;2024-01-25T02:31:04;96450.38;;;7.74;100.00
27429;BME280;14881;48.092;11.574;2024-01-25T02:33:30;96454.72;;;7.75;100.00
27429;BME280;14881;48.092;11.574;2024-01-25T02:35:57;96447.75;;;7.79;100.00
27429;BME280;14881;48.092;11.574;2024-01-25T02:38:24;96444.03;;;7.85;100.00
27429;BME280;14881;48.092;11.574;2024-01-25T02:40:51;96435.28;;;7.78;100.00
27429;BME280;14881;48.092;11.574;2024-01-25T02:43:19;96441.50;;;7.78;100.00
27429;BME280;14881;48.092;11.574;2024-01-25T02:45:46;96440.44;;;7.79;100.00
27429;BME280;14881;48.092;11.574;2024-01-25T02:48:14;96434.22;;;7.79;100.00
27429;BME280;14881;48.092;11.574;2024-01-25T02:50:40;96431.56;;;7.84;100.00
27429;BME280;14881;48.092;11.574;2024-01-25T02:53:07;96432.72;;;7.88;100.00
27429;BME280;14881;48.092;11.574;2024-01-25T02:55:33;96434.09;;;7.90;100.00
27429;BME280;14881;48.092;11.574;2024-01-25T02:58:00;96433.19;;;7.85;100.00
27429;BME280;14881;48.092;11.574;2024-01-25T03:00:27;96438.28;;;7.81;100.00
27429;BME280;14881;48.092;11.574;2024-01-25T03:02:54;96442.00;;;7.75;100.00
27429;BME280;14881;48.092;11.574;2024-01-25T03:05:20;96444.13;;;7.73;100.00
27429;BME280;14881;48.092;11.574;2024-01-25T03:07:47;96438.41;;;7.69;100.00
27429;BME280;14881;48.092;11.574;2024-01-25T03:10:13;96443.81;;;7.69;100.00
27429;BME280;14881;48.092;11.574;2024-01-25T03:12:40;96441.44;;;7.73;100.00
27429;BME280;14881;48.092;11.574;2024-01-25T03:15:09;96444.38;;;7.72;100.00
27429;BME280;14881;48.092;11.574;2024-01-25T03:17:36;96442.81;;;7.76;100.00
27429;BME280;14881;48.092;11.574;2024-01-25T03:20:03;96436.84;;;7.74;100.00
27429;BME280;14881;48.092;11.574;2024-01-25T03:22:30;96432.25;;;7.74;100.00
27429;BME280;14881;48.092;11.574;2024-01-25T03:24:56;96432.81;;;7.76;100.00
27429;BME280;14881;48.092;11.574;2024-01-25T03:27:23;96437.66;;;7.74;100.00
27429;BME280;14881;48.092;11.574;2024-01-25T03:29:49;96428.16;;;7.72;100.00
27429;BME280;14881;48.092;11.574;2024-01-25T03:32:17;96425.19;;;7.73;100.00
27429;BME280;14881;48.092;11.574;2024-01-25T03:34:43;96415.44;;;7.72;100.00
27429;BME280;14881;48.092;11.574;2024-01-25T03:37:10;96408.41;;;7.71;100.00
27429;BME280;14881;48.092;11.574;2024-01-25T03:39:37;96405.13;;;7.69;100.00
27429;BME280;14881;48.092;11.574;2024-01-25T03:42:03;96403.41;;;7.63;100.00
27429;BME280;14881;48.092;11.574;2024-01-25T03:44:30;96408.00;;;7.62;100.00
27429;BME280;14881;48.092;11.574;2024-01-25T03:46:57;96410.41;;;7.59;100.00
27429;BME280;14881;48.092;11.574;2024-01-25T03:49:24;96398.25;;;7.61;100.00
27429;BME280;14881;48.092;11.574;2024-01-25T03:51:51;96405.81;;;7.59;100.00
27429;BME280;14881;48.092;11.574;2024-01-25T03:54:17;96418.75;;;7.57;100.00
27429;BME280;14881;48.092;11.574;2024-01-25T03:56:44;96417.09;;;7.56;100.00
27429;BME280;14881;48.092;11.574;2024-01-25T03:59:10;96428.75;;;7.57;100.00
27429;BME280;14881;48.092;11.574;2024-01-25T04:01:43;96426.63;;;7.59;100.00
27429;BME280;14881;48.092;11.574;2024-01-25T04:04:10;96418.50;;;7.59;100.00
27429;BME280;14881;48.092;11.574;2024-01-25T04:06:38;96430.38;;;7.58;100.00
27429;BME280;14881;48.092;11.574;2024-01-25T04:09:05;96442.75;;;7.54;100.00
27429;BME280;14881;48.092;11.574;2024-01-25T04:11:31;96433.66;;;7.60;100.00
27429;BME280;14881;48.092;11.574;2024-01-25T04:13:58;96441.44;;;7.56;100.00
27429;BME280;14881;48.092;11.574;2024-01-25T04:16:26;96440.63;;;7.56;100.00
27429;BME280;14881;48.092;11.574;2024-01-25T04:18:53;96440.63;;;7.56;100.00
27429;BME280;14881;48.092;11.574;2024-01-25T04:21:19;96437.84;;;7.51;100.00
27429;BME280;14881;48.092;11.574;2024-01-25T04:23:46;96444.06;;;7.51;100.00
27429;BME280;14881;48.092;11.574;2024-01-25T04:26:14;96449.47;;;7.51;100.00
27429;BME280;14881;48.092;11.574;2024-01-25T04:28:40;96462.09;;;7.46;100.00
27429;BME280;14881;48.092;11.574;2024-01-25T04:31:07;96456.94;;;7.44;100.00
27429;BME280;14881;48.092;11.574;2024-01-25T04:33:33;96464.25;;;7.44;100.00
27429;BME280;14881;48.092;11.574;2024-01-25T04:36:01;96467.50;;;7.46;100.00
27429;BME280;14881;48.092;11.574;2024-01-25T04:38:28;96490.69;;;7.42;100.00
27429;BME280;14881;48.092;11.574;2024-01-25T04:40:55;96474.22;;;7.43;100.00
27429;BME280;14881;48.092;11.574;2024-01-25T04:43:21;96479.06;;;7.41;100.00
27429;BME280;14881;48.092;11.574;2024-01-25T04:45:48;96472.84;;;7.41;100.00
27429;BME280;14881;48.092;11.574;2024-01-25T04:48:15;96483.41;;;7.42;100.00
27429;BME280;14881;48.092;11.574;2024-01-25T04:50:42;96470.13;;;7.41;100.00
27429;BME280;14881;48.092;11.574;2024-01-25T04:53:08;96463.16;;;7.45;100.00
27429;BME280;14881;48.092;11.574;2024-01-25T04:55:35;96476.59;;;7.40;100.00
27429;BME280;14881;48.092;11.574;2024-01-25T04:58:02;96470.84;;;7.36;100.00
27429;BME280;14881;48.092;11.574;2024-01-25T05:00:28;96485.44;;;7.35;100.00
27429;BME280;14881;48.092;11.574;2024-01-25T05:02:55;96487.47;;;7.45;100.00
27429;BME280;14881;48.092;11.574;2024-01-25T05:05:21;96489.63;;;7.43;100.00
27429;BME280;14881;48.092;11.574;2024-01-25T05:07:48;96488.88;;;7.47;100.00
27429;BME280;14881;48.092;11.574;2024-01-25T05:10:14;96499.13;;;7.45;100.00
27429;BME280;14881;48.092;11.574;2024-01-25T05:12:41;96505.63;;;7.44;100.00
27429;BME280;14881;48.092;11.574;2024-01-25T05:15:09;96501.75;;;7.40;100.00
27429;BME280;14881;48.092;11.574;2024-01-25T05:17:35;96500.50;;;7.48;100.00
27429;BME280;14881;48.092;11.574;2024-01-25T05:20:02;96509.53;;;7.53;100.00
27429;BME280;14881;48.092;11.574;2024-01-25T05:22:29;96507.56;;;7.49;100.00
27429;BME280;14881;48.092;11.574;2024-01-25T05:24:55;96511.09;;;7.49;100.00
27429;BME280;14881;48.092;11.574;2024-01-25T05:27:22;96525.19;;;7.51;100.00
27429;BME280;14881;48.092;11.574;2024-01-25T05:29:49;96525.66;;;7.48;100.00
27429;BME280;14881;48.092;11.574;2024-01-25T05:32:16;96520.75;;;7.45;100.00
27429;BME280;14881;48.092;11.574;2024-01-25T05:34:42;96517.50;;;7.43;100.00
27429;BME280;14881;48.092;11.574;2024-01-25T05:37:09;96525.09;;;7.46;100.00
27429;BME280;14881;48.092;11.574;2024-01-25T05:39:36;96516.97;;;7.46;100.00
27429;BME280;14881;48.092;11.574;2024-01-25T05:42:03;96512.09;;;7.43;100.00
27429;BME280;14881;48.092;11.574;2024-01-25T05:44:29;96522.47;;;7.34;100.00
27429;BME280;14881;48.092;11.574;2024-01-25T05:46:56;96528.69;;;7.35;100.00
27429;BME280;14881;48.092;11.574;2024-01-25T05:49:23;96528.09;;;7.33;100.00
27429;BME280;14881;48.092;11.574;2024-01-25T05:51:50;96524.59;;;7.32;100.00
27429;BME280;14881;48.092;11.574;2024-01-25T05:54:16;96532.22;;;7.36;100.00
27429;BME280;14881;48.092;11.574;2024-01-25T05:56:43;96537.84;;;7.34;100.00
27429;BME280;14881;48.092;11.574;2024-01-25T05:59:09;96543.03;;;7.36;100.00
27429;BME280;14881;48.092;11.574;2024-01-25T06:01:36;96547.75;;;7.28;100.00
27429;BME280;14881;48.092;11.574;2024-01-25T06:04:03;96545.31;;;7.27;100.00
27429;BME280;14881;48.092;11.574;2024-01-25T06:06:30;96553.44;;;7.27;100.00
27429;BME280;14881;48.092;11.574;2024-01-25T06:08:57;96553.66;;;7.25;100.00
27429;BME280;14881;48.092;11.574;2024-01-25T06:11:38;96558.50;;;7.23;100.00
27429;BME280;14881;48.092;11.574;2024-01-25T06:14:05;96566.00;;;7.21;100.00
27429;BME280;14881;48.092;11.574;2024-01-25T06:16:34;96575.53;;;7.24;100.00
27429;BME280;14881;48.092;11.574;2024-01-25T06:19:02;96577.88;;;7.20;100.00
27429;BME280;14881;48.092;11.574;2024-01-25T06:21:28;96583.06;;;7.22;100.00
27429;BME280;14881;48.092;11.574;2024-01-25T06:23:58;96579.53;;;7.21;100.00
27429;BME280;14881;48.092;11.574;2024-01-25T06:26:28;96581.16;;;7.22;100.00
27429;BME280;14881;48.092;11.574;2024-01-25T06:28:54;96589.19;;;7.17;100.00
27429;BME280;14881;48.092;11.574;2024-01-25T06:31:21;96595.53;;;7.11;100.00
27429;BME280;14881;48.092;11.574;2024-01-25T06:33:47;96598.81;;;7.13;100.00
27429;BME280;14881;48.092;11.574;2024-01-25T06:36:16;96609.03;;;7.11;100.00
27429;BME280;14881;48.092;11.574;2024-01-25T06:38:43;96616.78;;;7.19;100.00
27429;BME280;14881;48.092;11.574;2024-01-25T06:41:10;96621.03;;;7.15;100.00
27429;BME280;14881;48.092;11.574;2024-01-25T06:43:36;96613.25;;;7.19;100.00
27429;BME280;14881;48.092;11.574;2024-01-25T06:46:03;96606.44;;;7.16;100.00
27429;BME280;14881;48.092;11.574;2024-01-25T06:48:29;96611.44;;;7.08;100.00
27429;BME280;14881;48.092;11.574;2024-01-25T06:50:56;96614.94;;;7.08;100.00
27429;BME280;14881;48.092;11.574;2024-01-25T06:53:22;96612.72;;;7.05;100.00
27429;BME280;14881;48.092;11.574;2024-01-25T06:55:49;96627.41;;;6.97;100.00
27429;BME280;14881;48.092;11.574;2024-01-25T06:58:16;96637.88;;;6.94;100.00
27429;BME280;14881;48.092;11.574;2024-01-25T07:00:43;96643.66;;;6.86;100.00
27429;BME280;14881;48.092;11.574;2024-01-25T07:03:12;96653.28;;;6.82;100.00
27429;BME280;14881;48.092;11.574;2024-01-25T07:05:41;96647.53;;;6.78;100.00
27429;BME280;14881;48.092;11.574;2024-01-25T07:08:08;96652.69;;;6.80;100.00
27429;BME280;14881;48.092;11.574;2024-01-25T07:10:39;96646.72;;;6.78;100.00
27429;BME280;14881;48.092;11.574;2024-01-25T07:13:05;96650.97;;;6.74;100.00
27429;BME280;14881;48.092;11.574;2024-01-25T07:15:33;96654.72;;;6.73;100.00
27429;BME280;14881;48.092;11.574;2024-01-25T07:17:59;96654.59;;;6.68;100.00
27429;BME280;14881;48.092;11.574;2024-01-25T07:20:26;96655.44;;;6.68;100.00
27429;BME280;14881;48.092;11.574;2024-01-25T07:22:52;96654.94;;;6.59;100.00
27429;BME280;14881;48.092;11.574;2024-01-25T07:25:19;96657.41;;;6.61;100.00
27429;BME280;14881;48.092;11.574;2024-01-25T07:27:46;96662.34;;;6.64;100.00
27429;BME280;14881;48.092;11.574;2024-01-25T07:30:13;96676.91;;;6.63;100.00
27429;BME280;14881;48.092;11.574;2024-01-25T07:32:41;96676.09;;;6.62;100.00
27429;BME280;14881;48.092;11.574;2024-01-25T07:35:08;96681.25;;;6.64;100.00
27429;BME280;14881;48.092;11.574;2024-01-25T07:37:35;96679.25;;;6.71;100.00
27429;BME280;14881;48.092;11.574;2024-01-25T07:40:02;96691.69;;;6.60;100.00
27429;BME280;14881;48.092;11.574;2024-01-25T07:42:29;96688.91;;;6.55;100.00
27429;BME280;14881;48.092;11.574;2024-01-25T07:44:57;96683.81;;;6.59;100.00
27429;BME280;14881;48.092;11.574;2024-01-25T07:47:23;96687.13;;;6.61;100.00
27429;BME280;14881;48.092;11.574;2024-01-25T07:49:51;96697.22;;;6.54;100.00
27429;BME280;14881;48.092;11.574;2024-01-25T07:52:18;96704.28;;;6.55;100.00
27429;BME280;14881;48.092;11.574;2024-01-25T07:54:44;96714.34;;;6.59;100.00
27429;BME280;14881;48.092;11.574;2024-01-25T07:57:11;96711.41;;;6.61;100.00
27429;BME280;14881;48.092;11.574;2024-01-25T07:59:37;96713.31;;;6.72;100.00
27429;BME280;14881;48.092;11.574;2024-01-25T08:02:04;96707.69;;;6.74;100.00
27429;BME280;14881;48.092;11.574;2024-01-25T08:04:30;96714.59;;;6.81;100.00
27429;BME280;14881;48.092;11.574;2024-01-25T08:06:58;96710.13;;;6.87;100.00
27429;BME280;14881;48.092;11.574;2024-01-25T08:09:25;96719.88;;;6.88;100.00
27429;BME280;14881;48.092;11.574;2024-01-25T08:11:52;96704.84;;;6.92;100.00
27429;BME280;14881;48.092;11.574;2024-01-25T08:14:18;96706.13;;;7.01;100.00
27429;BME280;14881;48.092;11.574;2024-01-25T08:16:45;96701.97;;;7.10;100.00
27429;BME280;14881;48.092;11.574;2024-01-25T08:19:11;96702.81;;;7.11;100.00
27429;BME280;14881;48.092;11.574;2024-01-25T08:21:38;96709.50;;;7.20;100.00
27429;BME280;14881;48.092;11.574;2024-01-25T08:24:06;96713.03;;;7.20;100.00
27429;BME280;14881;48.092;11.574;2024-01-25T08:26:32;96709.25;;;7.21;100.00
27429;BME280;14881;48.092;11.574;2024-01-25T08:28:58;96704.19;;;7.25;100.00
27429;BME280;14881;48.092;11.574;2024-01-25T08:31:25;96710.88;;;7.34;100.00
27429;BME280;14881;48.092;11.574;2024-01-25T08:33:51;96694.88;;;7.44;100.00
27429;BME280;14881;48.092;11.574;2024-01-25T08:36:18;96697.19;;;7.52;100.00
27429;BME280;14881;48.092;11.574;2024-01-25T08:38:45;96687.63;;;7.61;100.00
27429;BME280;14881;48.092;11.574;2024-01-25T08:41:13;96690.38;;;7.78;100.00
27429;BME280;14881;48.092;11.574;2024-01-25T08:43:41;96687.38;;;7.91;100.00
27429;BME280;14881;48.092;11.574;2024-01-25T08:46:07;96680.91;;;8.09;100.00
27429;BME280;14881;48.092;11.574;2024-01-25T08:48:34;96675.25;;;8.11;100.00
27429;BME280;14881;48.092;11.574;2024-01-25T08:51:02;96680.44;;;8.12;100.00
27429;BME280;14881;48.092;11.574;2024-01-25T08:53:28;96685.41;;;8.03;100.00
27429;BME280;14881;48.092;11.574;2024-01-25T08:55:55;96688.84;;;7.99;100.00
27429;BME280;14881;48.092;11.574;2024-01-25T08:58:22;96693.44;;;7.98;100.00
27429;BME280;14881;48.092;11.574;2024-01-25T09:00:49;96691.97;;;8.08;100.00
27429;BME280;14881;48.092;11.574;2024-01-25T09:03:18;96699.19;;;8.19;100.00
27429;BME280;14881;48.092;11.574;2024-01-25T09:05:47;96694.13;;;8.22;100.00
27429;BME280;14881;48.092;11.574;2024-01-25T09:08:14;96696.69;;;8.29;100.00
27429;BME280;14881;48.092;11.574;2024-01-25T09:10:41;96705.47;;;8.36;100.00
27429;BME280;14881;48.092;11.574;2024-01-25T09:13:08;96714.19;;;8.38;100.00
27429;BME280;14881;48.092;11.574;2024-01-25T09:15:36;96711.00;;;8.41;100.00
27429;BME280;14881;48.092;11.574;2024-01-25T09:18:02;96716.31;;;8.36;100.00
27429;BME280;14881;48.092;11.574;2024-01-25T09:20:33;96718.78;;;8.37;100.00
27429;BME280;14881;48.092;11.574;2024-01-25T09:22:59;96711.19;;;8.23;100.00
27429;BME280;14881;48.092;11.574;2024-01-25T09:25:26;96718.81;;;8.26;100.00
27429;BME280;14881;48.092;11.574;2024-01-25T09:27:52;96713.50;;;8.31;100.00
27429;BME280;14881;48.092;11.574;2024-01-25T09:30:20;96720.13;;;8.23;100.00
27429;BME280;14881;48.092;11.574;2024-01-25T09:32:48;96727.81;;;8.15;100.00
27429;BME280;14881;48.092;11.574;2024-01-25T09:35:15;96734.22;;;8.09;100.00
27429;BME280;14881;48.092;11.574;2024-01-25T09:37:43;96731.28;;;8.10;100.00
27429;BME280;14881;48.092;11.574;2024-01-25T09:40:10;96735.13;;;8.14;100.00
27429;BME280;14881;48.092;11.574;2024-01-25T09:42:38;96734.94;;;8.32;100.00
27429;BME280;14881;48.092;11.574;2024-01-25T09:45:06;96734.94;;;8.32;100.00
27429;BME280;14881;48.092;11.574;2024-01-25T09:47:33;96738.66;;;8.15;100.00
27429;BME280;14881;48.092;11.574;2024-01-25T09:50:01;96738.38;;;7.99;100.00
27429;BME280;14881;48.092;11.574;2024-01-25T09:52:29;96735.50;;;7.89;100.00
27429;BME280;14881;48.092;11.574;2024-01-25T09:54:57;96735.44;;;8.01;100.00
27429;BME280;14881;48.092;11.574;2024-01-25T09:57:27;96732.50;;;8.19;100.00
27429;BME280;14881;48.092;11.574;2024-01-25T09:59:54;96731.09;;;8.62;100.00
27429;BME280;14881;48.092;11.574;2024-01-25T10:02:24;96732.06;;;8.89;100.00
27429;BME280;14881;48.092;11.574;2024-01-25T10:04:51;96737.88;;;9.36;100.00
27429;BME280;14881;48.092;11.574;2024-01-25T10:07:36;96732.69;;;9.78;100.00
27429;BME280;14881;48.092;11.574;2024-01-25T10:10:05;96741.25;;;10.41;100.00
27429;BME280;14881;48.092;11.574;2024-01-25T10:12:32;96734.63;;;10.96;100.00
27429;BME280;14881;48.092;11.574;2024-01-25T10:14:58;96734.06;;;10.94;100.00
27429;BME280;14881;48.092;11.574;2024-01-25T10:17:25;96729.13;;;10.86;100.00
27429;BME280;14881;48.092;11.574;2024-01-25T10:20:09;96718.41;;;10.74;100.00
27429;BME280;14881;48.092;11.574;2024-01-25T10:22:38;96721.28;;;10.94;100.00
27429;BME280;14881;48.092;11.574;2024-01-25T10:25:12;96721.13;;;11.63;100.00
27429;BME280;14881;48.092;11.574;2024-01-25T10:27:39;96714.22;;;10.93;100.00
27429;BME280;14881;48.092;11.574;2024-01-25T10:30:07;96707.72;;;10.03;100.00
27429;BME280;14881;48.092;11.574;2024-01-25T10:32:35;96701.19;;;9.77;100.00
27429;BME280;14881;48.092;11.574;2024-01-25T10:35:02;96701.47;;;9.54;100.00
27429;BME280;14881;48.092;11.574;2024-01-25T10:37:30;96711.13;;;9.23;100.00
27429;BME280;14881;48.092;11.574;2024-01-25T10:39:59;96708.31;;;8.96;100.00
27429;BME280;14881;48.092;11.574;2024-01-25T10:42:26;96705.28;;;8.93;100.00
27429;BME280;14881;48.092;11.574;2024-01-25T10:44:53;96695.91;;;8.84;100.00
27429;BME280;14881;48.092;11.574;2024-01-25T10:47:19;96704.13;;;8.89;100.00
27429;BME280;14881;48.092;11.574;2024-01-25T10:49:47;96703.16;;;8.95;100.00
27429;BME280;14881;48.092;11.574;2024-01-25T10:52:15;96700.44;;;8.95;100.00
27429;BME280;14881;48.092;11.574;2024-01-25T10:54:41;96695.75;;;8.90;100.00
27429;BME280;14881;48.092;11.574;2024-01-25T10:57:09;96688.94;;;8.88;100.00
27429;BME280;14881;48.092;11.574;2024-01-25T10:59:35;96685.88;;;9.01;100.00
27429;BME280;14881;48.092;11.574;2024-01-25T11:02:03;96681.28;;;9.23;100.00
27429;BME280;14881;48.092;11.574;2024-01-25T11:04:29;96672.50;;;9.60;100.00
27429;BME280;14881;48.092;11.574;2024-01-25T11:07:06;96671.53;;;9.44;100.00
27429;BME280;14881;48.092;11.574;2024-01-25T11:09:33;96669.16;;;9.53;100.00
27429;BME280;14881;48.092;11.574;2024-01-25T11:12:01;96657.56;;;9.35;100.00
27429;BME280;14881;48.092;11.574;2024-01-25T11:14:28;96658.53;;;9.24;100.00
27429;BME280;14881;48.092;11.574;2024-01-25T11:16:55;96657.63;;;9.19;100.00
27429;BME280;14881;48.092;11.574;2024-01-25T11:19:21;96654.06;;;9.13;100.00
27429;BME280;14881;48.092;11.574;2024-01-25T11:21:49;96643.97;;;9.08;100.00
27429;BME280;14881;48.092;11.574;2024-01-25T11:24:19;96646.34;;;9.05;100.00
27429;BME280;14881;48.092;11.574;2024-01-25T11:26:46;96645.41;;;8.94;100.00
27429;BME280;14881;48.092;11.574;2024-01-25T11:29:13;96643.94;;;8.87;100.00
27429;BME280;14881;48.092;11.574;2024-01-25T11:31:42;96633.81;;;9.21;100.00
27429;BME280;14881;48.092;11.574;2024-01-25T11:34:10;96631.78;;;9.82;100.00
27429;BME280;14881;48.092;11.574;2024-01-25T11:36:37;96625.72;;;9.74;100.00
27429;BME280;14881;48.092;11.574;2024-01-25T11:39:04;96616.19;;;9.45;100.00
27429;BME280;14881;48.092;11.574;2024-01-25T11:41:32;96616.53;;;9.27;100.00
27429;BME280;14881;48.092;11.574;2024-01-25T11:43:59;96615.66;;;9.21;100.00
27429;BME280;14881;48.092;11.574;2024-01-25T11:46:25;96614.16;;;9.08;100.00
27429;BME280;14881;48.092;11.574;2024-01-25T11:48:53;96620.78;;;8.96;100.00
27429;BME280;14881;48.092;11.574;2024-01-25T11:51:22;96608.72;;;8.87;100.00
27429;BME280;14881;48.092;11.574;2024-01-25T11:53:50;96609.16;;;8.79;100.00
27429;BME280;14881;48.092;11.574;2024-01-25T11:56:20;96612.56;;;8.91;100.00
27429;BME280;14881;48.092;11.574;2024-01-25T11:58:48;96604.47;;;9.39;100.00
27429;BME280;14881;48.092;11.574;2024-01-25T12:01:15;96599.41;;;9.75;100.00
27429;BME280;14881;48.092;11.574;2024-01-25T12:03:42;96598.56;;;10.01;100.00
27429;BME280;14881;48.092;11.574;2024-01-25T12:06:10;96595.09;;;10.11;100.00
27429;BME280;14881;48.092;11.574;2024-01-25T12:08:36;96591.34;;;10.17;100.00
27429;BME280;14881;48.092;11.574;2024-01-25T12:11:05;96601.16;;;10.18;100.00
27429;BME280;14881;48.092;11.574;2024-01-25T12:13:33;96597.94;;;10.21;100.00
27429;BME280;14881;48.092;11.574;2024-01-25T12:16:00;96595.06;;;10.06;100.00
27429;BME280;14881;48.092;11.574;2024-01-25T12:18:27;96587.84;;;9.90;100.00
27429;BME280;14881;48.092;11.574;2024-01-25T12:20:54;96599.59;;;9.95;100.00
27429;BME280;14881;48.092;11.574;2024-01-25T12:23:21;96581.31;;;10.18;100.00
27429;BME280;14881;48.092;11.574;2024-01-25T12:25:48;96581.03;;;10.51;100.00
27429;BME280;14881;48.092;11.574;2024-01-25T12:28:14;96573.31;;;10.80;100.00
27429;BME280;14881;48.092;11.574;2024-01-25T12:30:41;96569.88;;;11.00;100.00
27429;BME280;14881;48.092;11.574;2024-01-25T12:33:07;96567.72;;;11.07;100.00
27429;BME280;14881;48.092;11.574;2024-01-25T12:35:34;96574.97;;;10.91;100.00
27429;BME280;14881;48.092;11.574;2024-01-25T12:38:01;96566.03;;;10.91;100.00
27429;BME280;14881;48.092;11.574;2024-01-25T12:40:28;96564.81;;;10.66;100.00
27429;BME280;14881;48.092;11.574;2024-01-25T12:42:55;96564.34;;;10.85;100.00
27429;BME280;14881;48.092;11.574;2024-01-25T12:45:22;96555.66;;;10.82;100.00
27429;BME280;14881;48.092;11.574;2024-01-25T12:47:48;96558.94;;;10.95;100.00
27429;BME280;14881;48.092;11.574;2024-01-25T12:50:15;96558.06;;;10.79;100.00